Time;durP1;ratioP1;P1;durP2;ratioP2;P2;SDS_P1;SDS_P2;PMS_P1;PMS_P2;Temp;Humidity;BMP_temperature;BMP_pressure;BME280_temperature;BME280_humidity;BME280_pressure;Samples;Min_cycle;Max_cycle;Signal;HPM_P1;HPM_P2
2022/11/01 00:03:58;;;;;;;7.17;2.08;;;21.30;89.40;;;;;;1942007;72;22087;-83
2022/11/01 00:06:49;;;;;;;7.00;2.05;;;21.30;89.70;;;;;;1885900;75;21146;-84
2022/11/01 00:09:40;;;;;;;6.60;2.25;;;21.30;89.80;;;;;;1888164;75;21088;-84
2022/11/01 00:15:11;;;;;;;7.08;2.30;;;21.40;90.00;;;;;;1938297;72;22267;-83
2022/11/01 00:18:02;;;;;;;3.90;2.02;;;21.40;90.10;;;;;;1888675;75;21100;-83
2022/11/01 00:20:54;;;;;;;7.08;2.42;;;21.30;90.30;;;;;;1897792;75;21116;-83
2022/11/01 00:23:46;;;;;;;10.43;2.17;;;21.20;90.60;;;;;;1917414;74;21623;-84
2022/11/01 00:26:37;;;;;;;12.33;2.10;;;21.10;91.00;;;;;;1889233;75;21201;-84
2022/11/01 00:29:29;;;;;;;8.43;2.33;;;21.10;91.10;;;;;;1884544;76;21106;-84
2022/11/01 00:32:20;;;;;;;7.53;2.05;;;21.10;91.30;;;;;;1903379;75;21161;-84
2022/11/01 00:35:12;;;;;;;5.20;2.00;;;21.20;91.60;;;;;;1901309;75;21477;-84
2022/11/01 00:38:04;;;;;;;6.70;2.05;;;21.30;91.80;;;;;;1900060;74;21139;-84
2022/11/01 00:40:55;;;;;;;5.95;2.08;;;21.30;92.00;;;;;;1893758;75;21133;-84
2022/11/01 00:43:47;;;;;;;9.98;2.15;;;21.30;92.10;;;;;;1910990;75;21108;-84
2022/11/01 00:46:38;;;;;;;7.15;2.08;;;21.30;92.30;;;;;;1877839;76;21076;-83
2022/11/01 00:49:30;;;;;;;7.08;2.10;;;21.30;92.60;;;;;;1912464;75;21601;-83
2022/11/01 00:52:22;;;;;;;10.08;1.90;;;21.30;92.40;;;;;;1906135;75;21638;-83
2022/11/01 00:55:13;;;;;;;5.67;2.05;;;21.40;92.70;;;;;;1900205;75;21113;-84
2022/11/01 00:58:05;;;;;;;12.00;2.70;;;21.40;92.80;;;;;;1916706;74;21080;-84
2022/11/01 01:00:57;;;;;;;6.40;1.98;;;21.40;92.70;;;;;;1892299;74;21089;-83
2022/11/01 01:03:49;;;;;;;6.05;2.05;;;21.40;92.60;;;;;;1902027;75;21059;-84
2022/11/01 01:09:19;;;;;;;8.78;2.40;;;21.60;92.60;;;;;;1956674;72;22166;-83
2022/11/01 01:12:10;;;;;;;10.32;1.90;;;21.60;92.50;;;;;;1913525;74;21118;-83
2022/11/01 01:15:02;;;;;;;3.98;1.47;;;21.60;92.60;;;;;;1905332;73;21127;-83
2022/11/01 01:17:53;;;;;;;5.92;2.10;;;21.60;92.40;;;;;;1921062;73;21089;-83
2022/11/01 01:20:45;;;;;;;8.08;2.70;;;21.70;97.00;;;;;;1917601;74;21084;-83
2022/11/01 01:26:18;;;;;;;9.15;3.02;;;19.70;99.90;;;;;;1953933;72;22555;-83
2022/11/01 01:29:09;;;;;;;8.63;2.98;;;19.30;99.90;;;;;;1909557;74;21100;-83
2022/11/01 01:34:44;;;;;;;7.53;3.05;;;18.60;99.90;;;;;;1952233;72;22208;-83
2022/11/01 01:37:36;;;;;;;9.33;2.95;;;18.50;99.90;;;;;;1905194;75;21563;-83
2022/11/01 01:40:27;;;;;;;6.05;2.58;;;18.10;99.90;;;;;;1914017;74;21067;-82
2022/11/01 01:43:19;;;;;;;10.30;3.62;;;18.10;99.90;;;;;;1924573;74;21176;-83
2022/11/01 01:48:53;;;;;;;8.53;3.52;;;17.80;99.90;;;;;;1928352;72;22805;-83
2022/11/01 01:51:44;;;;;;;6.33;3.08;;;17.50;99.90;;;;;;1890721;74;21173;-84
2022/11/01 01:54:35;;;;;;;8.88;3.98;;;17.60;99.90;;;;;;1903647;75;21077;-84
2022/11/01 02:00:09;;;;;;;7.72;3.50;;;17.40;99.90;;;;;;1960150;72;22139;-83
2022/11/01 02:05:45;;;;;;;4.78;2.80;;;17.10;99.90;;;;;;1928803;72;22134;-82
2022/11/01 02:08:38;;;;;;;9.83;3.35;;;16.80;99.90;;;;;;1892736;75;21167;-82
2022/11/01 02:14:41;;;;;;;12.55;4.12;;;16.20;99.90;;;;;;2073837;68;22193;-84
2022/11/01 02:20:26;;;;;;;6.65;2.42;;;16.00;99.90;;;;;;1946513;72;22226;-82
2022/11/01 02:23:57;;;;;;;5.80;2.52;;;16.00;99.90;;;;;;1896966;74;21162;-85
2022/11/01 02:27:07;;;;;;;6.87;2.92;;;16.00;99.90;;;;;;1908149;75;21067;-84
2022/11/01 02:30:13;;;;;;;7.85;3.65;;;15.90;99.90;;;;;;1908273;75;21108;-85
2022/11/01 02:33:11;;;;;;;8.88;2.85;;;16.00;99.90;;;;;;1902950;75;21083;-85
2022/11/01 02:36:05;;;;;;;11.48;3.75;;;16.00;99.90;;;;;;1906164;75;21586;-86
2022/11/01 02:41:40;;;;;;;11.85;4.20;;;15.60;99.90;;;;;;1934021;72;22106;-85
2022/11/01 02:44:34;;;;;;;9.45;4.90;;;15.50;99.90;;;;;;1898069;75;21159;-85
2022/11/01 02:47:27;;;;;;;14.30;4.97;;;15.50;99.90;;;;;;1898238;75;21521;-85
2022/11/01 02:50:20;;;;;;;11.03;4.30;;;15.40;99.90;;;;;;1884819;75;21121;-85
2022/11/01 02:53:12;;;;;;;10.00;4.42;;;15.40;99.90;;;;;;1872207;75;21085;-85
2022/11/01 02:56:04;;;;;;;10.08;4.10;;;15.40;99.90;;;;;;1891743;75;21124;-85
2022/11/01 02:58:56;;;;;;;8.48;3.60;;;15.40;99.90;;;;;;1903518;75;21093;-86
2022/11/01 03:04:27;;;;;;;10.48;3.47;;;15.20;99.90;;;;;;1956920;72;22578;-84
2022/11/01 03:07:18;;;;;;;9.90;3.83;;;15.10;99.90;;;;;;1916960;75;21117;-86
2022/11/01 03:10:10;;;;;;;13.32;3.83;;;15.00;99.90;;;;;;1917606;75;21047;-84
2022/11/01 03:13:05;;;;;;;9.00;3.42;;;15.00;99.90;;;;;;1895047;75;21218;-84
2022/11/01 03:16:05;;;;;;;12.95;3.75;;;14.90;99.90;;;;;;1874402;76;21107;-84
2022/11/01 03:19:12;;;;;;;11.55;3.92;;;14.90;99.90;;;;;;1879183;76;21114;-84
2022/11/01 03:22:09;;;;;;;10.45;3.80;;;14.80;99.90;;;;;;1915039;75;21093;-84
2022/11/01 03:25:04;;;;;;;8.63;3.60;;;14.80;99.90;;;;;;1917198;75;21218;-84
2022/11/01 03:27:56;;;;;;;9.28;3.47;;;14.90;99.90;;;;;;1912123;75;21126;-83
2022/11/01 03:30:51;;;;;;;10.08;4.00;;;14.80;99.90;;;;;;1903409;75;21091;-85
2022/11/01 03:33:46;;;;;;;9.75;4.22;;;14.80;99.90;;;;;;1900629;74;21047;-83
2022/11/01 03:36:41;;;;;;;13.43;6.25;;;14.70;99.90;;;;;;1918204;74;21083;-83
2022/11/01 03:39:35;;;;;;;9.80;4.37;;;14.70;99.90;;;;;;1910249;75;21124;-85
2022/11/01 03:42:27;;;;;;;11.15;4.33;;;14.70;99.90;;;;;;1891386;75;21100;-84
2022/11/01 03:48:00;;;;;;;11.12;3.83;;;14.70;99.90;;;;;;1943499;72;22241;-83
2022/11/01 03:50:55;;;;;;;9.75;3.98;;;14.70;99.90;;;;;;1921019;73;21121;-85
2022/11/01 03:53:46;;;;;;;8.50;3.83;;;14.60;99.90;;;;;;1903259;75;21054;-85
2022/11/01 03:56:39;;;;;;;11.97;4.12;;;14.70;99.90;;;;;;1925690;73;21169;-84
2022/11/01 04:02:10;;;;;;;9.15;4.10;;;14.80;99.90;;;;;;1927774;72;22141;-83
2022/11/01 04:05:01;;;;;;;10.70;4.00;;;14.90;99.90;;;;;;1906563;75;21549;-84
2022/11/01 04:07:52;;;;;;;9.83;4.75;;;14.80;99.90;;;;;;1899061;75;21100;-84
2022/11/01 04:10:44;;;;;;;14.23;7.55;;;14.80;99.90;;;;;;1934115;74;21076;-85
2022/11/01 04:22:33;;;;;;;14.20;4.97;;;14.80;99.90;;;;;;1902495;75;22377;-83
2022/11/01 04:25:24;;;;;;;9.15;4.37;;;14.80;99.90;;;;;;1887996;75;21124;-83
2022/11/01 04:28:16;;;;;;;13.18;5.58;;;14.70;99.90;;;;;;1900164;75;21079;-83
2022/11/01 04:31:08;;;;;;;15.23;7.65;;;14.70;99.90;;;;;;1887594;75;21494;-83
2022/11/01 04:34:00;;;;;;;10.75;4.90;;;14.70;99.90;;;;;;1900505;75;21091;-83
2022/11/01 04:39:31;;;;;;;11.90;4.75;;;14.70;99.90;;;;;;1952816;72;22174;-83
2022/11/01 04:45:01;;;;;;;9.45;4.05;;;14.70;99.90;;;;;;1940152;72;22211;-83
2022/11/01 04:48:02;;;;;;;9.38;4.37;;;14.80;99.90;;;;;;1911582;74;21108;-85
2022/11/01 04:50:54;;;;;;;8.05;3.87;;;14.80;99.90;;;;;;1891831;75;21187;-84
2022/11/01 04:53:45;;;;;;;9.08;4.20;;;14.80;99.90;;;;;;1909848;75;21124;-83
2022/11/01 04:59:14;;;;;;;11.57;4.75;;;14.70;99.90;;;;;;1939752;72;22276;-83
2022/11/01 05:02:05;;;;;;;12.63;4.22;;;14.70;99.90;;;;;;1876485;75;21413;-83
2022/11/01 05:04:56;;;;;;;9.88;4.15;;;14.70;99.90;;;;;;1873028;75;21147;-84
2022/11/01 05:07:48;;;;;;;11.45;4.72;;;14.70;99.90;;;;;;1892787;75;21081;-83
2022/11/01 05:10:42;;;;;;;10.18;3.98;;;14.70;99.90;;;;;;1843955;77;21129;-84
2022/11/01 05:13:34;;;;;;;12.10;4.70;;;14.80;99.90;;;;;;1900253;75;21063;-84
2022/11/01 05:16:26;;;;;;;11.53;4.22;;;14.70;99.90;;;;;;1891966;75;21084;-84
2022/11/01 05:19:18;;;;;;;12.95;4.50;;;14.70;99.90;;;;;;1873054;75;21718;-83
2022/11/01 05:22:09;;;;;;;11.35;4.47;;;14.70;99.90;;;;;;1827406;78;21122;-84
2022/11/01 05:25:01;;;;;;;9.43;4.58;;;14.60;99.90;;;;;;1858228;76;21139;-83
2022/11/01 05:27:54;;;;;;;9.88;4.67;;;14.70;99.90;;;;;;1900843;75;21168;-83
2022/11/01 05:30:45;;;;;;;8.70;4.17;;;14.60;99.90;;;;;;1867276;75;21053;-84
2022/11/01 05:33:36;;;;;;;12.53;4.95;;;14.60;99.90;;;;;;1894607;75;21136;-83
2022/11/01 05:39:08;;;;;;;11.15;4.35;;;14.70;99.90;;;;;;1940317;72;22264;-83
2022/11/01 05:42:00;;;;;;;10.68;4.72;;;14.70;99.90;;;;;;1906676;75;21208;-84
2022/11/01 05:44:53;;;;;;;14.40;5.33;;;14.60;99.90;;;;;;1903025;75;21039;-84
2022/11/01 05:47:44;;;;;;;10.78;5.10;;;14.60;99.90;;;;;;1903241;75;21036;-83
2022/11/01 05:50:35;;;;;;;8.38;4.47;;;14.60;99.90;;;;;;1901735;75;21059;-83
2022/11/01 05:53:28;;;;;;;10.00;4.45;;;14.60;99.90;;;;;;1900574;75;21600;-83
2022/11/01 05:56:19;;;;;;;10.38;4.67;;;14.60;99.90;;;;;;1907625;75;21188;-82
2022/11/01 06:01:49;;;;;;;10.35;4.95;;;14.60;99.90;;;;;;1955390;72;22164;-83
2022/11/01 06:04:40;;;;;;;9.28;4.80;;;14.60;99.90;;;;;;1920552;73;21583;-84
2022/11/01 06:07:31;;;;;;;8.18;4.37;;;14.60;99.90;;;;;;1940187;73;21620;-83
2022/11/01 06:10:23;;;;;;;11.25;5.35;;;14.60;99.90;;;;;;1940169;73;21098;-82
2022/11/01 06:13:14;;;;;;;8.65;4.35;;;14.70;99.90;;;;;;1934948;73;21101;-83
2022/11/01 06:16:08;;;;;;;11.60;4.33;;;14.70;99.90;;;;;;1916326;74;21063;-84
2022/11/01 06:18:59;;;;;;;7.33;3.95;;;14.70;99.90;;;;;;1928186;73;21091;-83
2022/11/01 06:24:30;;;;;;;10.70;4.30;;;14.70;99.90;;;;;;1945426;72;22108;-82
2022/11/01 06:30:00;;;;;;;10.30;5.12;;;14.80;99.90;;;;;;1948394;72;22145;-83
2022/11/01 06:32:51;;;;;;;10.70;5.35;;;14.80;99.90;;;;;;1916110;74;21044;-82
2022/11/01 06:35:43;;;;;;;8.23;4.65;;;14.80;99.90;;;;;;1916116;75;21148;-82
2022/11/01 06:38:35;;;;;;;9.43;4.62;;;14.70;99.90;;;;;;1885121;75;21147;-82
2022/11/01 06:41:26;;;;;;;9.98;4.85;;;14.70;99.90;;;;;;1884506;75;21154;-82
2022/11/01 06:44:17;;;;;;;10.55;5.03;;;14.70;99.90;;;;;;1889297;75;21149;-83
2022/11/01 06:47:09;;;;;;;9.85;5.40;;;14.70;99.90;;;;;;1890844;75;21491;-82
2022/11/01 06:50:00;;;;;;;8.68;5.08;;;14.70;99.90;;;;;;1889009;75;21069;-82
2022/11/01 06:52:52;;;;;;;9.75;4.70;;;14.70;99.90;;;;;;1880410;75;21066;-84
2022/11/01 06:55:43;;;;;;;9.03;5.15;;;14.70;99.90;;;;;;1896403;75;21351;-84
2022/11/01 06:58:35;;;;;;;9.05;5.92;;;14.70;99.90;;;;;;1886541;75;21208;-83
2022/11/01 07:04:06;;;;;;;9.50;4.92;;;14.80;99.90;;;;;;1942427;72;22257;-82
2022/11/01 07:06:57;;;;;;;10.58;5.05;;;14.80;99.90;;;;;;1918794;73;21515;-72
2022/11/01 07:09:49;;;;;;;9.70;5.10;;;14.90;99.90;;;;;;1918965;73;21312;-73
2022/11/01 07:12:40;;;;;;;8.63;4.95;;;14.80;99.90;;;;;;1925151;73;21804;-73
2022/11/01 07:15:32;;;;;;;8.93;4.85;;;14.80;99.90;;;;;;1919302;73;21104;-72
2022/11/01 07:18:24;;;;;;;10.15;5.20;;;14.80;99.90;;;;;;1919418;73;21111;-72
2022/11/01 07:23:56;;;;;;;11.22;5.87;;;14.80;99.90;;;;;;1928784;72;22238;-74
2022/11/01 07:29:28;;;;;;;9.40;5.17;;;14.90;99.90;;;;;;1926440;72;22326;-74
2022/11/01 07:34:59;;;;;;;11.43;5.28;;;14.90;99.90;;;;;;1944106;72;22312;-74
2022/11/01 07:37:50;;;;;;;8.25;4.92;;;14.90;99.90;;;;;;1928250;73;21158;-73
2022/11/01 07:40:43;;;;;;;8.78;5.15;;;14.90;99.90;;;;;;1926521;73;21087;-73
2022/11/01 07:43:35;;;;;;;10.55;5.28;;;15.00;99.90;;;;;;1917047;73;21189;-73
2022/11/01 07:46:26;;;;;;;12.15;5.05;;;15.00;99.90;;;;;;1920610;73;21156;-73
2022/11/01 07:49:18;;;;;;;12.00;5.75;;;15.10;99.90;;;;;;1917443;73;21034;-73
2022/11/01 07:52:09;;;;;;;9.10;5.42;;;15.10;99.90;;;;;;1918820;73;21605;-73
2022/11/01 07:55:00;;;;;;;11.10;5.60;;;15.00;99.90;;;;;;1918691;73;21307;-73
2022/11/01 07:57:51;;;;;;;10.38;5.45;;;15.10;99.90;;;;;;1928177;73;21128;-73
2022/11/01 08:00:44;;;;;;;10.23;5.17;;;15.00;99.90;;;;;;1924555;73;21661;-73
2022/11/01 08:03:35;;;;;;;8.18;5.17;;;15.00;99.90;;;;;;1930141;73;21473;-73
2022/11/01 08:09:06;;;;;;;8.30;5.15;;;15.00;99.90;;;;;;1919453;72;22239;-72
2022/11/01 08:11:58;;;;;;;7.53;5.33;;;15.00;99.90;;;;;;1892893;75;21199;-74
2022/11/01 08:14:49;;;;;;;10.60;5.55;;;15.00;99.90;;;;;;1884527;75;21225;-74
2022/11/01 08:17:40;;;;;;;7.58;4.80;;;15.10;99.90;;;;;;1894195;74;21647;-74
2022/11/01 08:20:31;;;;;;;12.45;5.35;;;15.10;99.90;;;;;;1886717;75;21164;-73
2022/11/01 08:26:05;;;;;;;10.78;5.42;;;15.10;99.90;;;;;;1934194;72;22224;-72
2022/11/01 08:28:56;;;;;;;7.50;5.55;;;15.10;99.90;;;;;;1907932;75;21092;-72
2022/11/01 08:34:29;;;;;;;9.63;5.58;;;15.10;99.90;;;;;;1925037;72;22673;-72
2022/11/01 08:37:20;;;;;;;10.38;5.87;;;15.20;99.90;;;;;;1900636;74;21112;-73
2022/11/01 08:40:13;;;;;;;9.30;6.28;;;15.20;99.90;;;;;;1892027;74;21584;-82
2022/11/01 08:43:04;;;;;;;10.53;7.03;;;15.20;99.90;;;;;;1907155;74;21163;-82
2022/11/01 08:45:57;;;;;;;11.28;8.20;;;15.40;99.90;;;;;;1896968;74;21225;-81
2022/11/01 08:48:51;;;;;;;9.78;6.00;;;15.50;99.90;;;;;;1907505;74;21143;-82
2022/11/01 08:54:19;;;;;;;9.20;5.53;;;15.70;99.90;;;;;;1925385;72;22796;-81
2022/11/01 08:57:10;;;;;;;9.95;5.15;;;15.70;99.90;;;;;;1907527;75;21138;-81
2022/11/01 09:00:02;;;;;;;10.05;5.47;;;15.70;99.90;;;;;;1894569;75;21131;-81
2022/11/01 09:02:53;;;;;;;9.73;5.78;;;15.70;99.90;;;;;;1889690;75;21106;-82
2022/11/01 09:05:44;;;;;;;9.13;5.12;;;15.80;99.90;;;;;;1898945;75;21064;-81
2022/11/01 09:08:37;;;;;;;6.60;4.80;;;15.80;99.90;;;;;;1906405;75;21044;-82
2022/11/01 09:11:29;;;;;;;7.05;4.40;;;16.00;99.90;;;;;;1894026;75;21123;-82
2022/11/01 09:17:12;;;;;;;9.08;4.08;;;16.20;99.90;;;;;;1940922;72;22270;-82
2022/11/01 09:20:03;;;;;;;7.78;3.92;;;16.30;99.90;;;;;;1932677;73;21057;-83
2022/11/01 09:25:34;;;;;;;7.10;3.85;;;16.50;99.90;;;;;;1933880;72;23210;-81
2022/11/01 09:28:25;;;;;;;6.40;3.50;;;16.60;99.90;;;;;;1899282;75;21213;-81
2022/11/01 09:33:57;;;;;;;5.80;3.40;;;16.80;99.90;;;;;;1947758;72;22264;-82
2022/11/01 09:39:29;;;;;;;7.53;3.27;;;16.90;99.90;;;;;;1933932;72;22306;-84
2022/11/01 09:45:03;;;;;;;8.48;4.08;;;17.00;99.90;;;;;;1928985;72;22931;-82
2022/11/01 09:47:56;;;;;;;7.33;3.55;;;17.10;99.90;;;;;;1906159;74;21115;-82
2022/11/01 09:50:48;;;;;;;8.98;3.42;;;17.30;99.90;;;;;;1893013;75;21135;-82
2022/11/01 09:53:39;;;;;;;8.58;3.85;;;17.50;99.90;;;;;;1889909;74;21053;-83
2022/11/01 09:56:34;;;;;;;9.30;3.35;;;17.50;99.90;;;;;;1905015;74;21164;-84
2022/11/01 09:59:28;;;;;;;8.65;3.90;;;17.60;99.90;;;;;;1896939;74;21558;-83
2022/11/01 10:02:33;;;;;;;6.58;4.10;;;17.70;99.90;;;;;;1885738;75;21157;-83
2022/11/01 10:05:31;;;;;;;6.62;2.83;;;17.80;99.90;;;;;;1906113;74;21142;-83
2022/11/01 10:08:28;;;;;;;5.78;3.20;;;17.80;99.90;;;;;;1898417;74;21552;-83
2022/11/01 10:11:36;;;;;;;4.90;2.95;;;18.00;99.90;;;;;;1890033;74;21218;-83
2022/11/01 10:14:53;;;;;;;5.53;3.15;;;18.10;99.90;;;;;;1860350;75;21128;-82
2022/11/01 10:20:38;;;;;;;6.95;3.27;;;18.10;99.90;;;;;;1935183;72;22097;-82
2022/11/01 10:23:37;;;;;;;7.17;3.20;;;18.10;99.90;;;;;;1908398;74;21153;-83
2022/11/01 10:26:30;;;;;;;7.75;3.05;;;18.20;99.90;;;;;;1910818;74;21644;-83
2022/11/01 10:29:31;;;;;;;7.37;2.90;;;18.30;99.90;;;;;;1907511;74;21153;-84
2022/11/01 10:32:26;;;;;;;7.22;3.58;;;18.30;99.90;;;;;;1909689;74;21733;-83
2022/11/01 10:35:20;;;;;;;5.58;3.20;;;18.20;99.90;;;;;;1908286;75;21519;-83
2022/11/01 10:38:16;;;;;;;6.25;3.45;;;18.20;99.90;;;;;;1908740;74;21594;-84
2022/11/01 10:41:17;;;;;;;6.33;3.27;;;18.40;99.90;;;;;;1901688;74;21164;-84
2022/11/01 10:44:12;;;;;;;6.87;2.92;;;18.40;99.90;;;;;;1914018;74;21076;-85
2022/11/01 10:47:08;;;;;;;7.92;3.12;;;18.40;99.90;;;;;;1909768;74;21266;-85
2022/11/01 10:52:51;;;;;;;8.95;3.12;;;18.40;99.90;;;;;;1949003;72;22102;-84
2022/11/01 11:01:08;;;;;;;6.20;3.58;;;19.00;99.90;;;;;;1938482;72;22267;-86
2022/11/01 11:04:03;;;;;;;7.55;3.22;;;19.00;99.90;;;;;;1903770;75;21071;-84
2022/11/01 11:06:55;;;;;;;5.47;2.55;;;19.10;99.90;;;;;;1928392;73;21080;-85
2022/11/01 11:09:48;;;;;;;10.15;3.37;;;19.20;99.90;;;;;;1920551;73;21066;-85
2022/11/01 11:15:23;;;;;;;7.40;3.52;;;19.10;99.90;;;;;;1928067;72;22183;-84
2022/11/01 11:18:19;;;;;;;11.73;3.58;;;19.20;99.90;;;;;;1888611;75;21485;-84
2022/11/01 11:21:12;;;;;;;7.42;3.67;;;19.40;99.90;;;;;;1884859;75;21146;-84
2022/11/01 11:24:04;;;;;;;4.40;2.75;;;19.50;99.90;;;;;;1896638;75;21153;-85
2022/11/01 11:29:44;;;;;;;8.23;3.10;;;19.40;99.90;;;;;;1949625;72;22130;-83
2022/11/01 11:32:37;;;;;;;5.78;2.90;;;19.20;99.90;;;;;;1890290;75;21068;-85
2022/11/01 11:35:31;;;;;;;10.28;3.08;;;19.20;99.90;;;;;;1888613;75;21133;-85
2022/11/01 11:38:40;;;;;;;7.95;3.00;;;19.10;99.90;;;;;;1891573;75;21216;-86
2022/11/01 11:41:34;;;;;;;5.45;2.37;;;19.20;99.90;;;;;;1889942;75;21051;-86
2022/11/01 11:44:40;;;;;;;6.05;2.50;;;19.30;99.90;;;;;;1888849;75;21216;-87
2022/11/01 11:47:36;;;;;;;6.58;2.67;;;19.30;99.90;;;;;;1900774;75;21147;-85
2022/11/01 11:50:34;;;;;;;6.75;2.42;;;19.30;99.90;;;;;;1903141;75;21202;-86
2022/11/01 11:56:36;;;;;;;4.10;1.92;;;19.40;99.90;;;;;;1969845;71;22164;-85
2022/11/01 11:59:31;;;;;;;5.17;2.55;;;19.50;99.90;;;;;;1943898;73;21143;-85
2022/11/01 12:02:26;;;;;;;4.47;2.47;;;19.60;99.90;;;;;;2022671;70;21088;-85
2022/11/01 12:05:21;;;;;;;4.78;2.08;;;19.40;99.90;;;;;;2029016;70;21097;-85
2022/11/01 12:08:23;;;;;;;6.58;2.62;;;19.40;99.90;;;;;;2009177;70;21127;-86
2022/11/01 12:11:16;;;;;;;6.30;2.42;;;19.40;99.90;;;;;;2015169;70;21061;-85
2022/11/01 12:14:11;;;;;;;5.95;2.40;;;19.40;99.90;;;;;;2018612;70;21017;-86
2022/11/01 12:17:02;;;;;;;8.70;2.70;;;19.60;99.90;;;;;;2022415;70;21088;-86
2022/11/01 12:20:04;;;;;;;7.37;2.40;;;19.80;99.90;;;;;;2007851;70;21582;-86
2022/11/01 12:22:59;;;;;;;6.70;2.75;;;19.90;99.90;;;;;;2014361;70;21010;-85
2022/11/01 12:25:51;;;;;;;5.95;2.62;;;19.90;99.90;;;;;;2026076;70;21091;-85
2022/11/01 12:28:45;;;;;;;5.92;2.60;;;19.80;99.90;;;;;;2005306;70;21066;-86
2022/11/01 12:34:20;;;;;;;5.35;2.02;;;19.80;99.90;;;;;;1928802;72;22360;-86
2022/11/01 12:37:16;;;;;;;10.05;2.85;;;19.80;99.90;;;;;;1910018;73;21130;-85
2022/11/01 12:40:12;;;;;;;7.70;2.62;;;19.70;99.90;;;;;;1897235;75;21137;-86
2022/11/01 12:43:08;;;;;;;4.25;2.17;;;19.50;99.90;;;;;;1907042;75;21199;-86
2022/11/01 12:46:04;;;;;;;7.55;2.35;;;19.50;99.90;;;;;;1894732;75;21124;-86
2022/11/01 12:48:58;;;;;;;5.15;2.10;;;19.40;99.90;;;;;;1879691;75;21189;-86
2022/11/01 12:51:53;;;;;;;6.80;2.75;;;19.30;99.90;;;;;;1899718;75;21060;-86
2022/11/01 12:54:48;;;;;;;4.17;2.02;;;19.30;99.90;;;;;;1895299;75;21059;-86
2022/11/01 12:57:40;;;;;;;5.30;2.30;;;19.40;99.90;;;;;;1902717;75;21075;-85
2022/11/01 13:00:37;;;;;;;5.10;2.08;;;19.40;99.90;;;;;;1917514;75;21102;-86
2022/11/01 13:03:36;;;;;;;4.28;1.67;;;19.30;99.90;;;;;;1898367;75;21170;-86
2022/11/01 13:06:43;;;;;;;4.28;1.72;;;19.40;99.90;;;;;;1883877;76;21109;-86
2022/11/01 13:09:40;;;;;;;6.03;1.75;;;19.40;99.90;;;;;;1884912;76;21186;-86
2022/11/01 13:12:37;;;;;;;4.78;2.00;;;19.30;99.90;;;;;;1911885;75;21117;-86
2022/11/01 13:18:15;;;;;;;2.95;1.65;;;19.40;99.90;;;;;;1952210;72;22249;-85
2022/11/01 13:21:10;;;;;;;5.60;2.30;;;19.30;99.90;;;;;;1922052;73;21046;-86
2022/11/01 13:24:05;;;;;;;3.90;1.98;;;19.40;99.90;;;;;;1933711;73;21124;-86
2022/11/01 13:26:59;;;;;;;7.30;2.20;;;19.60;99.90;;;;;;1936562;73;21110;-86
2022/11/01 13:29:55;;;;;;;3.95;1.90;;;19.60;99.90;;;;;;1921170;73;21106;-87
2022/11/01 13:32:50;;;;;;;5.62;2.35;;;19.50;99.90;;;;;;1946001;73;21582;-86
2022/11/01 13:35:46;;;;;;;5.75;2.00;;;19.50;99.90;;;;;;1925561;73;21145;-86
2022/11/01 13:38:41;;;;;;;5.12;2.00;;;19.60;99.90;;;;;;1924216;73;21129;-86
2022/11/01 13:41:36;;;;;;;5.62;2.08;;;19.60;99.90;;;;;;1942234;73;21098;-94
2022/11/01 13:44:31;;;;;;;4.03;1.67;;;19.70;99.90;;;;;;1951953;73;21125;-91
2022/11/01 13:47:43;;;;;;;3.55;1.82;;;19.70;99.90;;;;;;1952480;73;21099;-93
2022/11/01 13:50:44;;;;;;;4.08;1.75;;;19.80;99.90;;;;;;1927948;73;21133;-93
2022/11/01 13:53:39;;;;;;;4.58;2.05;;;19.80;99.90;;;;;;1908157;75;21055;-91
2022/11/01 13:56:34;;;;;;;5.97;2.50;;;19.80;99.90;;;;;;1911008;73;21119;-93
2022/11/01 13:59:35;;;;;;;3.80;1.90;;;19.80;99.90;;;;;;1937110;73;21054;-93
2022/11/01 14:02:56;;;;;;;3.17;1.60;;;19.80;99.90;;;;;;1952517;73;21143;-94
2022/11/01 14:05:49;;;;;;;4.72;2.02;;;19.80;99.90;;;;;;1945554;73;21124;-92
2022/11/01 14:08:43;;;;;;;4.35;1.92;;;19.70;99.90;;;;;;1942630;73;21094;-85
2022/11/01 14:11:48;;;;;;;3.80;1.92;;;19.70;99.90;;;;;;1930973;73;21090;-86
2022/11/01 14:14:53;;;;;;;3.65;1.45;;;19.60;99.90;;;;;;1917320;73;21076;-87
2022/11/01 14:18:08;;;;;;;4.10;1.90;;;19.60;99.90;;;;;;1917020;75;21617;-86
2022/11/01 14:21:00;;;;;;;3.20;1.60;;;19.60;99.90;;;;;;1860000;76;21105;-86
2022/11/01 14:24:00;;;;;;;3.92;1.87;;;19.60;99.90;;;;;;1914174;73;21111;-86
2022/11/01 14:27:18;;;;;;;6.47;1.82;;;19.50;99.90;;;;;;1916153;73;21126;-86
2022/11/01 14:30:15;;;;;;;3.72;2.08;;;19.50;99.90;;;;;;1939348;73;21119;-86
2022/11/01 14:33:10;;;;;;;2.92;1.80;;;19.50;99.90;;;;;;1920823;73;21054;-85
2022/11/01 14:36:02;;;;;;;3.65;2.00;;;19.40;99.90;;;;;;1928880;73;21586;-86
2022/11/01 14:38:59;;;;;;;4.53;2.15;;;19.50;99.90;;;;;;1916791;75;21108;-86
2022/11/01 14:41:51;;;;;;;3.65;2.10;;;19.50;99.90;;;;;;1928927;73;21055;-85
2022/11/01 14:44:47;;;;;;;4.08;1.75;;;19.40;99.90;;;;;;1921296;73;21173;-86
2022/11/01 14:47:42;;;;;;;3.33;1.30;;;19.30;99.90;;;;;;1925552;73;21051;-86
2022/11/01 14:50:39;;;;;;;2.42;1.45;;;19.20;99.90;;;;;;1910896;75;21134;-86
2022/11/01 14:53:33;;;;;;;4.25;2.40;;;19.10;99.90;;;;;;1916715;75;21490;-86
2022/11/01 14:56:32;;;;;;;4.25;1.70;;;19.10;99.90;;;;;;1927954;73;21051;-86
2022/11/01 14:59:27;;;;;;;4.58;1.92;;;19.10;99.90;;;;;;1920094;73;21129;-86
2022/11/01 15:02:19;;;;;;;3.15;1.60;;;19.00;99.90;;;;;;1939374;73;21094;-85
2022/11/01 15:05:14;;;;;;;2.35;1.37;;;19.10;99.90;;;;;;1939453;73;21088;-85
2022/11/01 15:08:22;;;;;;;3.08;1.70;;;19.00;99.90;;;;;;1916477;75;21109;-85
2022/11/01 15:11:13;;;;;;;4.87;1.62;;;19.00;99.90;;;;;;1916958;75;21091;-85
2022/11/01 15:14:07;;;;;;;4.87;1.60;;;18.90;99.90;;;;;;1927120;73;21129;-87
2022/11/01 15:16:59;;;;;;;4.37;1.52;;;18.90;99.90;;;;;;1928170;73;21104;-87
2022/11/01 15:19:52;;;;;;;5.22;1.80;;;18.80;99.90;;;;;;1950388;73;21122;-87
2022/11/01 15:22:44;;;;;;;5.17;1.72;;;18.80;99.90;;;;;;1934774;73;21113;-86
2022/11/01 15:25:35;;;;;;;6.97;1.90;;;18.80;99.90;;;;;;1916934;75;21124;-86
2022/11/01 15:28:29;;;;;;;6.45;2.05;;;18.80;99.90;;;;;;1917015;75;21049;-85
2022/11/01 15:31:21;;;;;;;5.70;2.10;;;18.80;99.90;;;;;;1939329;73;21584;-87
2022/11/01 15:34:23;;;;;;;5.50;1.90;;;18.70;99.90;;;;;;1916818;75;21107;-86
2022/11/01 15:37:21;;;;;;;6.22;3.10;;;18.60;99.90;;;;;;1916754;75;21106;-86
2022/11/01 15:40:24;;;;;;;;;;;18.50;99.90;;;;;;1919728;75;21126;-86
2022/11/01 15:43:20;;;;;;;6.37;2.67;;;18.30;99.90;;;;;;1939548;73;20416;-85
2022/11/01 15:46:12;;;;;;;6.12;2.80;;;18.20;99.90;;;;;;1915891;73;21509;-86
2022/11/01 15:49:06;;;;;;;7.37;2.87;;;18.20;99.90;;;;;;1936164;73;21050;-86
2022/11/01 15:52:01;;;;;;;5.87;2.70;;;18.10;99.90;;;;;;1941613;73;21059;-86
2022/11/01 15:54:56;;;;;;;5.95;2.33;;;18.10;99.90;;;;;;1926279;74;21530;-86
2022/11/01 15:57:51;;;;;;;5.45;2.30;;;18.00;99.90;;;;;;1867957;76;21630;-85
2022/11/01 16:00:46;;;;;;;4.72;2.58;;;17.90;99.90;;;;;;1939415;73;21141;-85
2022/11/01 16:03:40;;;;;;;4.47;2.37;;;17.80;99.90;;;;;;1916929;75;21531;-85
2022/11/01 16:06:35;;;;;;;5.72;2.85;;;17.80;99.90;;;;;;1916807;75;21127;-85
2022/11/01 16:09:35;;;;;;;6.08;3.00;;;17.60;99.90;;;;;;1916959;75;21051;-85
2022/11/01 16:12:30;;;;;;;5.87;2.40;;;17.60;99.90;;;;;;1926284;73;21092;-86
2022/11/01 16:15:25;;;;;;;6.03;2.30;;;17.50;99.90;;;;;;1928325;73;21091;-86
2022/11/01 16:18:23;;;;;;;3.87;2.08;;;17.50;99.90;;;;;;1947971;73;21059;-87
2022/11/01 16:21:32;;;;;;;5.17;2.52;;;17.50;99.90;;;;;;1916944;75;21160;-86
2022/11/01 16:24:25;;;;;;;6.47;2.67;;;17.40;99.90;;;;;;1929450;73;21115;-86
2022/11/01 16:27:26;;;;;;;5.45;2.27;;;17.40;99.90;;;;;;1914113;73;21043;-86
2022/11/01 16:30:41;;;;;;;5.87;2.50;;;17.30;99.90;;;;;;1938491;73;21110;-86
2022/11/01 16:33:43;;;;;;;5.10;2.40;;;17.20;99.90;;;;;;1938201;73;21120;-85
2022/11/01 16:36:41;;;;;;;5.97;2.27;;;17.10;99.90;;;;;;1937771;73;21181;-86
2022/11/01 16:39:32;;;;;;;5.50;2.62;;;17.00;99.90;;;;;;1926619;73;21059;-86
2022/11/01 16:42:24;;;;;;;6.60;2.98;;;17.00;99.90;;;;;;1940024;73;21047;-86
2022/11/01 16:45:15;;;;;;;6.05;3.00;;;17.00;99.90;;;;;;1935510;73;21482;-86
2022/11/01 16:48:13;;;;;;;5.22;2.62;;;16.90;99.90;;;;;;1944985;73;21155;-86
2022/11/01 16:53:51;;;;;;;4.90;2.50;;;16.90;99.90;;;;;;1934741;72;22276;-87
2022/11/01 16:56:46;;;;;;;8.43;2.67;;;16.80;99.90;;;;;;1900064;75;21059;-87
2022/11/01 16:59:41;;;;;;;4.05;2.50;;;16.80;99.90;;;;;;1905661;75;21058;-86
2022/11/01 17:02:33;;;;;;;7.45;2.90;;;16.80;99.90;;;;;;1884419;76;21050;-87
2022/11/01 17:05:24;;;;;;;5.83;2.75;;;16.70;99.90;;;;;;1893886;75;21124;-87
2022/11/01 17:08:17;;;;;;;7.03;2.55;;;16.70;99.90;;;;;;1899427;75;21129;-86
2022/11/01 17:11:09;;;;;;;8.03;3.08;;;16.50;99.90;;;;;;1891770;74;21110;-87
2022/11/01 17:14:00;;;;;;;7.00;3.37;;;16.50;99.90;;;;;;1899669;75;21088;-86